createdAt,value
2018-06-01T00:00:57.862Z,100925.46
2018-06-01T00:03:23.712Z,100919.19
2018-06-01T00:05:49.492Z,100915.73
2018-06-01T00:08:15.301Z,100909.86
2018-06-01T00:10:41.920Z,100917.70
2018-06-01T00:13:07.713Z,100906.70
2018-06-01T00:15:33.509Z,100902.95
2018-06-01T00:17:59.322Z,100896.09
2018-06-01T00:20:25.491Z,100893.89
2018-06-01T00:22:51.289Z,100888.59
2018-06-01T00:25:17.101Z,100890.85
2018-06-01T00:27:42.901Z,100881.28
2018-06-01T00:30:08.713Z,100880.30
2018-06-01T00:32:34.495Z,100881.61
2018-06-01T00:35:00.306Z,100875.48
2018-06-01T00:37:26.130Z,100877.97
2018-06-01T00:39:51.935Z,100871.80
2018-06-01T00:42:17.866Z,100872.94
2018-06-01T00:44:43.653Z,100877.23
2018-06-01T00:47:09.450Z,100877.98
2018-06-01T00:49:35.275Z,100876.08
2018-06-01T00:52:01.095Z,100874.63
2018-06-01T00:54:26.902Z,100875.45
2018-06-01T00:56:52.693Z,100876.47
2018-06-01T00:59:18.510Z,100873.49
2018-06-01T01:01:44.308Z,100877.29
2018-06-01T01:04:10.330Z,100873.72
2018-06-01T01:06:36.150Z,100880.02
2018-06-01T01:09:02.637Z,100879.77
2018-06-01T01:11:28.429Z,100876.22
2018-06-01T01:13:54.411Z,100875.95
2018-06-01T01:16:20.198Z,100878.65
2018-06-01T01:18:45.985Z,100882.03
2018-06-01T01:21:11.887Z,100881.19
2018-06-01T01:23:38.709Z,100876.88
2018-06-01T01:26:05.978Z,100882.06
2018-06-01T01:28:32.461Z,100871.66
2018-06-01T01:30:59.648Z,100879.13
2018-06-01T01:33:26.389Z,100878.09
2018-06-01T01:35:53.434Z,100886.55
2018-06-01T01:38:21.504Z,100889.20
2018-06-01T01:40:54.162Z,100880.97
2018-06-01T01:43:21.132Z,100872.69
2018-06-01T01:45:48.434Z,100880.98
2018-06-01T01:48:14.248Z,100882.43
2018-06-01T01:50:40.053Z,100874.94
2018-06-01T01:53:05.844Z,100877.55
2018-06-01T01:55:31.647Z,100874.07
2018-06-01T01:57:57.440Z,100868.92
2018-06-01T02:00:23.239Z,100868.74
2018-06-01T02:02:49.037Z,100872.30
2018-06-01T02:05:14.846Z,100871.27
2018-06-01T02:07:40.645Z,100865.64
2018-06-01T02:10:06.474Z,100866.27
2018-06-01T02:12:32.270Z,100866.22
2018-06-01T02:14:58.093Z,100865.81
2018-06-01T02:17:23.903Z,100865.38
2018-06-01T02:19:49.693Z,100866.89
2018-06-01T02:22:15.486Z,100873.28
2018-06-01T02:24:41.277Z,100868.59
2018-06-01T02:27:07.084Z,100872.30
2018-06-01T02:29:32.877Z,100869.05
2018-06-01T02:31:58.667Z,100872.52
2018-06-01T02:34:24.474Z,100870.34
2018-06-01T02:36:50.263Z,100856.45
2018-06-01T02:39:16.103Z,100877.25
2018-06-01T02:41:41.885Z,100881.64
2018-06-01T02:44:07.702Z,100886.92
2018-06-01T02:46:33.494Z,100888.45
2018-06-01T02:48:59.288Z,100889.22
2018-06-01T02:51:25.086Z,100893.45
2018-06-01T02:53:50.904Z,100894.27
2018-06-01T02:56:16.701Z,100890.70
2018-06-01T02:58:42.487Z,100897.42
2018-06-01T03:01:08.294Z,100893.43
2018-06-01T03:03:34.073Z,100896.02
2018-06-01T03:05:59.867Z,100892.34
2018-06-01T03:08:25.685Z,100895.72
2018-06-01T03:10:51.606Z,100896.17
2018-06-01T03:13:17.414Z,100898.92
2018-06-01T03:15:43.211Z,100897.63
2018-06-01T03:18:08.999Z,100901.66
2018-06-01T03:20:34.787Z,100900.08
2018-06-01T03:23:00.607Z,100894.92
2018-06-01T03:25:26.405Z,100893.89
2018-06-01T03:27:52.180Z,100897.16
2018-06-01T03:30:18.020Z,100894.50
2018-06-01T03:32:43.815Z,100894.27
2018-06-01T03:35:09.609Z,100898.25
2018-06-01T03:37:35.399Z,100890.92
2018-06-01T03:40:01.227Z,100889.42
2018-06-01T03:42:27.050Z,100895.75
2018-06-01T03:44:52.845Z,100899.27
2018-06-01T03:47:18.636Z,100890.66
2018-06-01T03:49:44.437Z,100896.53
2018-06-01T03:52:10.221Z,100893.07
2018-06-01T03:54:36.010Z,100890.73
2018-06-01T03:57:01.846Z,100889.85
2018-06-01T03:59:27.649Z,100892.45
2018-06-01T04:01:53.537Z,100893.73
2018-06-01T04:04:19.385Z,100893.77
2018-06-01T04:06:45.183Z,100894.83
2018-06-01T04:09:10.994Z,100898.82
2018-06-01T04:11:36.794Z,100898.48
2018-06-01T04:14:02.802Z,100901.78
2018-06-01T04:16:28.853Z,100897.97
2018-06-01T04:18:54.654Z,100897.98
2018-06-01T04:21:20.446Z,100903.78
2018-06-01T04:23:46.254Z,100903.53
2018-06-01T04:26:12.029Z,100905.30
2018-06-01T04:28:37.843Z,100911.39
2018-06-01T04:31:03.734Z,100912.77
2018-06-01T04:33:29.530Z,100903.45
2018-06-01T04:35:55.340Z,100900.38
2018-06-01T04:38:21.114Z,100901.35
2018-06-01T04:40:46.909Z,100899.32
2018-06-01T04:43:12.729Z,100898.42
2018-06-01T04:45:38.521Z,100900.88
2018-06-01T04:48:04.336Z,100907.84
2018-06-01T04:50:30.142Z,100908.56
2018-06-01T04:52:55.961Z,100904.23
2018-06-01T04:55:21.753Z,100902.98
2018-06-01T04:57:47.549Z,100911.08
2018-06-01T05:00:13.541Z,100909.98
2018-06-01T05:02:39.330Z,100907.31
2018-06-01T05:05:05.139Z,100904.92
2018-06-01T05:07:30.935Z,100899.92
2018-06-01T05:09:56.726Z,100896.28
2018-06-01T05:12:22.514Z,100892.50
2018-06-01T05:14:48.356Z,100890.47
2018-06-01T05:17:14.138Z,100892.50
2018-06-01T05:19:44.985Z,100886.91
2018-06-01T05:22:11.049Z,100883.45
2018-06-01T05:24:36.818Z,100885.78
2018-06-01T05:27:02.652Z,100885.80
2018-06-01T05:29:28.487Z,100880.74
2018-06-01T05:31:54.270Z,100884.19
2018-06-01T05:34:20.066Z,100868.30
2018-06-01T05:36:45.870Z,100870.00
2018-06-01T05:39:12.521Z,100872.94
2018-06-01T05:41:38.318Z,100870.28
2018-06-01T05:44:04.421Z,100867.70
2018-06-01T05:46:30.216Z,100870.48
2018-06-01T05:48:56.013Z,100870.02
2018-06-01T05:51:21.833Z,100874.97
2018-06-01T05:53:54.462Z,100871.71
2018-06-01T05:56:20.287Z,100873.64
2018-06-01T05:58:46.099Z,100867.11
2018-06-01T06:01:11.885Z,100877.25
2018-06-01T06:03:37.669Z,100870.16
2018-06-01T06:06:03.852Z,100873.63
2018-06-01T06:08:29.637Z,100884.40
2018-06-01T06:10:55.417Z,100878.10
2018-06-01T06:13:21.311Z,100871.52
2018-06-01T06:15:47.067Z,100877.98
2018-06-01T06:18:12.868Z,100875.46
2018-06-01T06:20:38.684Z,100874.20
2018-06-01T06:23:04.505Z,100875.12
2018-06-01T06:25:30.286Z,100881.91
2018-06-01T06:27:56.094Z,100879.75
2018-06-01T06:30:21.886Z,100877.33
2018-06-01T06:32:47.680Z,100877.18
2018-06-01T06:35:13.481Z,100873.98
2018-06-01T06:37:39.634Z,100879.30
2018-06-01T06:40:05.386Z,100874.28
2018-06-01T06:42:31.180Z,100874.05
2018-06-01T06:44:56.974Z,100873.48
2018-06-01T06:47:22.787Z,100874.41
2018-06-01T06:49:48.610Z,100873.76
2018-06-01T06:52:14.501Z,100878.34
2018-06-01T06:54:40.322Z,100878.45
2018-06-01T06:57:06.114Z,100882.18
2018-06-01T06:59:31.911Z,100883.38
2018-06-01T07:01:58.381Z,100881.11
2018-06-01T07:04:24.188Z,100880.36
2018-06-01T07:06:49.974Z,100884.70
2018-06-01T07:09:17.166Z,100884.58
2018-06-01T07:11:42.974Z,100875.99
2018-06-01T07:14:09.542Z,100882.61
2018-06-01T07:16:35.373Z,100878.77
2018-06-01T07:19:01.172Z,100883.45
2018-06-01T07:21:27.596Z,100889.57
2018-06-01T07:23:53.429Z,100894.13
2018-06-01T07:26:19.221Z,100891.24
2018-06-01T07:28:45.023Z,100886.44
2018-06-01T07:31:10.833Z,100891.35
2018-06-01T07:33:36.621Z,100888.11
2018-06-01T07:36:02.448Z,100886.61
2018-06-01T07:38:28.346Z,100888.81
2018-06-01T07:40:54.134Z,100887.73
2018-06-01T07:43:19.905Z,100888.66
2018-06-01T07:45:45.726Z,100885.43
2018-06-01T07:48:11.514Z,100885.22
2018-06-01T07:50:37.313Z,100881.17
2018-06-01T07:53:03.484Z,100884.32
2018-06-01T07:55:29.265Z,100887.27
2018-06-01T07:57:55.066Z,100895.05
2018-06-01T08:00:20.858Z,100893.91
2018-06-01T08:02:46.633Z,100891.88
2018-06-01T08:05:12.577Z,100896.33
2018-06-01T08:07:38.381Z,100899.95
2018-06-01T08:10:04.200Z,100902.30
2018-06-01T08:12:30.006Z,100906.20
2018-06-01T08:14:55.799Z,100909.80
2018-06-01T08:17:21.601Z,100903.56
2018-06-01T08:19:47.398Z,100901.58
2018-06-01T08:22:13.190Z,100902.52
2018-06-01T08:24:38.969Z,100900.48
2018-06-01T08:27:05.061Z,100900.86
2018-06-01T08:29:30.843Z,100896.78
2018-06-01T08:31:56.645Z,100891.70
2018-06-01T08:34:22.441Z,100893.84
2018-06-01T08:36:48.225Z,100897.04
2018-06-01T08:39:14.029Z,100909.13
2018-06-01T08:41:39.853Z,100905.74
2018-06-01T08:44:05.665Z,100909.32
2018-06-01T08:46:31.515Z,100910.69
2018-06-01T08:48:57.301Z,100911.14
2018-06-01T08:51:23.105Z,100906.55
2018-06-01T08:53:48.916Z,100907.02
2018-06-01T08:56:14.717Z,100900.28
2018-06-01T08:58:40.983Z,100900.25
2018-06-01T09:01:06.786Z,100899.89
2018-06-01T09:03:32.578Z,100901.73
2018-06-01T09:05:58.357Z,100898.37
2018-06-01T09:08:24.432Z,100911.72
2018-06-01T09:10:50.230Z,100909.55
2018-06-01T09:13:16.018Z,100914.40
2018-06-01T09:15:41.818Z,100909.47
2018-06-01T09:18:07.624Z,100908.27
2018-06-01T09:20:33.443Z,100901.77
2018-06-01T09:22:59.262Z,100907.41
2018-06-01T09:25:25.050Z,100904.41
2018-06-01T09:27:50.839Z,100914.41
2018-06-01T09:30:16.644Z,100911.92
2018-06-01T10:09:40.289Z,100908.84
2018-06-01T10:12:06.098Z,100909.66
2018-06-01T10:14:31.902Z,100915.25
2018-06-01T10:16:57.870Z,100907.95
2018-06-01T10:19:23.657Z,100907.94
2018-06-01T10:21:49.458Z,100908.79
2018-06-01T10:24:15.285Z,100906.15
2018-06-01T10:26:41.106Z,100907.42
2018-06-01T10:29:06.892Z,100905.70
2018-06-01T10:31:32.715Z,100907.86
2018-06-01T10:33:58.527Z,100906.60
2018-06-01T10:36:24.326Z,100908.73
2018-06-01T10:38:50.139Z,100907.47
2018-06-01T10:41:16.425Z,100903.08
2018-06-01T10:43:42.205Z,100902.53
2018-06-01T10:46:08.022Z,100904.72
2018-06-01T10:48:33.803Z,100900.38
2018-06-01T10:50:59.589Z,100902.80
2018-06-01T10:53:25.409Z,100901.53
2018-06-01T10:55:51.337Z,100897.73
2018-06-01T10:58:17.177Z,100895.16
2018-06-01T11:00:42.986Z,100890.33
2018-06-01T11:03:08.777Z,100894.73
2018-06-01T11:05:34.571Z,100890.03
2018-06-01T11:08:00.437Z,100887.36
2018-06-01T11:10:26.223Z,100887.01
2018-06-01T11:12:52.333Z,100879.55
2018-06-01T11:15:18.170Z,100878.06
2018-06-01T11:17:43.962Z,100881.56
2018-06-01T11:20:09.774Z,100875.98
2018-06-01T11:22:35.765Z,100873.37
2018-06-01T11:25:01.589Z,100873.39
2018-06-01T11:27:27.478Z,100872.80
2018-06-01T11:29:53.263Z,100872.73
2018-06-01T11:32:19.249Z,100873.58
2018-06-01T11:34:45.057Z,100863.80
2018-06-01T11:37:10.855Z,100865.50
2018-06-01T11:39:36.677Z,100861.98
2018-06-01T11:42:02.495Z,100869.20
2018-06-01T11:44:28.273Z,100865.28
2018-06-01T11:46:54.088Z,100864.67
2018-06-01T11:49:19.877Z,100861.58
2018-06-01T11:51:45.661Z,100863.84
2018-06-01T11:54:11.543Z,100862.12
2018-06-01T11:56:37.335Z,100864.63
2018-06-01T11:59:03.124Z,100859.53
2018-06-01T12:01:28.945Z,100867.28
2018-06-01T12:03:54.745Z,100865.47
2018-06-01T12:06:20.527Z,100862.33
2018-06-01T12:08:46.637Z,100861.11
2018-06-01T12:11:12.467Z,100854.97
2018-06-01T12:13:38.213Z,100858.23
2018-06-01T12:16:04.023Z,100852.61
2018-06-01T12:18:29.827Z,100858.51
2018-06-01T12:20:55.864Z,100855.05
2018-06-01T12:23:21.650Z,100852.13
2018-06-01T12:25:47.437Z,100844.53
2018-06-01T12:28:13.253Z,100843.63
2018-06-01T12:30:39.081Z,100845.66
2018-06-01T12:33:04.914Z,100839.53
2018-06-01T12:35:30.705Z,100830.23
2018-06-01T12:37:56.489Z,100830.67
2018-06-01T12:40:22.481Z,100827.27
2018-06-01T12:42:48.326Z,100832.15
2018-06-01T12:45:14.114Z,100831.08
2018-06-01T12:47:39.918Z,100831.88
2018-06-01T12:50:05.719Z,100826.58
2018-06-01T12:52:31.524Z,100822.33
2018-06-01T12:54:57.314Z,100814.81
2018-06-01T12:57:23.091Z,100813.36
2018-06-01T12:59:48.885Z,100808.06
2018-06-01T13:02:14.686Z,100806.53
2018-06-01T13:04:40.524Z,100803.94
2018-06-01T13:07:06.313Z,100793.72
2018-06-01T13:09:32.114Z,100793.40
2018-06-01T13:11:57.927Z,100797.05
2018-06-01T13:14:23.734Z,100789.41
2018-06-01T13:16:49.513Z,100798.45
2018-06-01T13:19:15.325Z,100797.31
2018-06-01T13:21:41.119Z,100801.23
2018-06-01T13:24:06.946Z,100798.22
2018-06-01T13:26:33.157Z,100794.29
2018-06-01T13:28:58.948Z,100797.80
2018-06-01T13:31:24.737Z,100795.28
2018-06-01T13:33:50.561Z,100787.47
2018-06-01T13:36:16.366Z,100786.04
2018-06-01T13:38:42.155Z,100780.80
2018-06-01T13:41:07.967Z,100776.17
2018-06-01T13:43:33.796Z,100779.47
2018-06-01T13:45:59.605Z,100777.05
2018-06-01T13:48:25.453Z,100776.89
2018-06-01T13:50:51.258Z,100776.06
2018-06-01T13:53:17.065Z,100785.36
2018-06-01T13:55:42.873Z,100783.80
2018-06-01T13:58:08.682Z,100777.45
2018-06-01T14:00:34.515Z,100775.52
2018-06-01T14:03:00.301Z,100776.91
2018-06-01T14:05:26.171Z,100771.83
2018-06-01T14:07:51.969Z,100770.39
2018-06-01T14:10:17.794Z,100756.52
2018-06-01T14:12:43.632Z,100760.47
2018-06-01T14:15:09.413Z,100751.55
2018-06-01T14:17:35.208Z,100753.25
2018-06-01T14:20:01.004Z,100746.52
2018-06-01T14:22:26.793Z,100753.31
2018-06-01T14:24:52.607Z,100747.62
2018-06-01T14:27:18.409Z,100737.97
2018-06-01T14:29:44.234Z,100738.77
2018-06-01T14:32:10.014Z,100735.45
2018-06-01T14:34:35.801Z,100736.23
2018-06-01T14:37:01.628Z,100735.67
2018-06-01T14:39:27.421Z,100735.42
2018-06-01T14:41:53.261Z,100737.16
2018-06-01T14:44:19.446Z,100723.94
2018-06-01T14:46:45.245Z,100728.08
2018-06-01T14:49:11.029Z,100724.38
2018-06-01T14:51:36.853Z,100718.47
2018-06-01T14:54:02.645Z,100712.14
2018-06-01T14:56:28.433Z,100719.92
2018-06-01T14:58:54.242Z,100712.73
2018-06-01T15:01:20.066Z,100714.22
2018-06-01T15:03:45.859Z,100714.00
2018-06-01T15:06:11.693Z,100712.63
2018-06-01T15:08:37.474Z,100717.52
2018-06-01T15:11:03.271Z,100723.97
2018-06-01T15:13:29.194Z,100725.65
2018-06-01T15:15:54.988Z,100720.55
2018-06-01T15:18:20.782Z,100716.95
2018-06-01T15:20:46.753Z,100720.18
2018-06-01T15:23:12.554Z,100723.94
2018-06-01T15:25:38.381Z,100720.64
2018-06-01T15:28:04.203Z,100719.70
2018-06-01T15:30:30.002Z,100708.87
2018-06-01T15:32:55.821Z,100709.33
2018-06-01T15:35:21.815Z,100709.25
2018-06-01T15:37:47.629Z,100700.78
2018-06-01T15:40:13.424Z,100701.86
2018-06-01T15:42:39.314Z,100701.65
2018-06-01T15:45:05.111Z,100705.64
2018-06-01T15:47:30.920Z,100701.28
2018-06-01T15:49:56.734Z,100699.18
2018-06-01T15:52:22.541Z,100706.88
2018-06-01T15:54:48.354Z,100707.23
2018-06-01T15:57:14.197Z,100713.09
2018-06-01T15:59:40.001Z,100712.56
2018-06-01T16:02:05.829Z,100714.81
2018-06-01T16:04:31.624Z,100713.77
2018-06-01T16:06:57.426Z,100721.23
2018-06-01T16:09:23.242Z,100724.93
2018-06-01T16:11:49.058Z,100721.65
2018-06-01T16:14:14.874Z,100714.59
2018-06-01T16:16:40.680Z,100721.45
2018-06-01T16:19:06.454Z,100724.98
2018-06-01T16:21:32.263Z,100727.22
2018-06-01T16:23:58.055Z,100736.31
2018-06-01T16:26:23.854Z,100749.01
2018-06-01T16:28:49.652Z,100747.34
2018-06-01T16:31:15.446Z,100746.06
2018-06-01T16:33:41.254Z,100750.80
2018-06-01T16:36:07.047Z,100758.67
2018-06-01T16:38:32.855Z,100753.46
2018-06-01T16:40:58.674Z,100752.36
2018-06-01T16:43:24.486Z,100745.10
2018-06-01T16:45:50.294Z,100754.12
2018-06-01T16:48:16.102Z,100759.41
2018-06-01T16:50:41.884Z,100766.76
2018-06-01T16:53:07.666Z,100762.03
2018-06-01T16:55:33.506Z,100760.42
2018-06-01T16:57:59.301Z,100766.03
2018-06-01T17:00:25.106Z,100769.48
2018-06-01T17:02:51.035Z,100773.81
2018-06-01T17:05:16.847Z,100773.50
2018-06-01T17:07:42.660Z,100768.77
2018-06-01T17:10:08.459Z,100777.39
2018-06-01T17:12:34.266Z,100783.38
2018-06-01T17:15:00.065Z,100787.27
2018-06-01T17:17:25.885Z,100789.45
2018-06-01T17:19:51.663Z,100791.69
2018-06-01T17:22:17.474Z,100790.86
2018-06-01T17:24:43.300Z,100791.26
2018-06-01T17:27:09.108Z,100795.13
2018-06-01T17:29:34.906Z,100792.98
2018-06-01T17:32:00.807Z,100792.57
2018-06-01T17:34:26.602Z,100786.13
2018-06-01T17:36:52.397Z,100786.97
2018-06-01T17:39:18.555Z,100789.99
2018-06-01T17:41:44.382Z,100789.13
2018-06-01T17:44:10.218Z,100791.72
2018-06-01T17:46:36.218Z,100799.85
2018-06-01T17:49:02.022Z,100803.29
2018-06-01T17:51:27.842Z,100809.28
2018-06-01T17:53:53.647Z,100808.43
2018-06-01T17:56:19.439Z,100813.55
2018-06-01T17:58:45.240Z,100816.47
2018-06-01T18:01:11.054Z,100799.30
2018-06-01T18:03:37.650Z,100814.78
2018-06-01T18:06:03.457Z,100807.50
2018-06-01T18:08:29.606Z,100804.48
2018-06-01T18:10:55.415Z,100809.63
2018-06-01T18:13:21.241Z,100816.01
2018-06-01T18:15:47.174Z,100818.99
2018-06-01T18:18:12.969Z,100803.56
2018-06-01T18:20:38.749Z,100807.02
2018-06-01T18:23:04.685Z,100805.68
2018-06-01T18:25:30.486Z,100805.23
2018-06-01T18:27:56.274Z,100803.48
2018-06-01T18:30:22.087Z,100808.94
2018-06-01T18:32:47.891Z,100811.92
2018-06-01T18:35:14.380Z,100809.36
2018-06-01T18:37:40.553Z,100809.35
2018-06-01T18:40:06.384Z,100808.08
2018-06-01T18:42:32.701Z,100801.62
2018-06-01T18:44:58.530Z,100792.17
2018-06-01T18:47:24.339Z,100795.63
2018-06-01T18:49:50.142Z,100808.44
2018-06-01T18:52:15.974Z,100804.59
2018-06-01T18:54:41.778Z,100813.06
2018-06-01T18:57:07.582Z,100809.22
2018-06-01T18:59:33.761Z,100816.92
2018-06-01T19:01:59.585Z,100820.30
2018-06-01T19:04:26.367Z,100824.91
2018-06-01T19:06:52.167Z,100827.03
2018-06-01T19:09:17.965Z,100826.86
2018-06-01T19:11:44.160Z,100831.97
2018-06-01T19:14:09.989Z,100843.45
2018-06-01T19:16:35.777Z,100851.58
2018-06-01T19:19:01.775Z,100852.44
2018-06-01T19:21:27.615Z,100852.77
2018-06-01T19:23:53.936Z,100857.04
2018-06-01T19:26:19.904Z,100860.39
2018-06-01T19:28:45.741Z,100866.38
2018-06-01T19:31:11.521Z,100867.66
2018-06-01T19:33:37.313Z,100879.56
2018-06-01T19:36:03.157Z,100897.36
2018-06-01T19:38:28.942Z,100903.26
2018-06-01T19:40:54.743Z,100910.59
2018-06-01T19:43:20.554Z,100911.77
2018-06-01T19:45:46.639Z,100908.11
2018-06-01T19:48:12.491Z,100909.09
2018-06-01T19:50:38.306Z,100887.74
2018-06-01T19:53:04.121Z,100885.05
2018-06-01T19:55:29.917Z,100876.23
2018-06-01T19:57:55.747Z,100873.36
2018-06-01T20:00:22.955Z,100866.11
2018-06-01T20:02:55.821Z,100860.92
2018-06-01T20:05:22.578Z,100856.08
2018-06-01T20:07:48.467Z,100856.55
2018-06-01T20:10:14.287Z,100861.50
2018-06-01T20:12:40.102Z,100858.03
2018-06-01T20:15:05.971Z,100858.52
2018-06-01T20:17:31.931Z,100854.98
2018-06-01T20:19:57.856Z,100847.58
2018-06-01T20:22:23.666Z,100848.22
2018-06-01T20:24:49.471Z,100848.28
2018-06-01T20:27:15.294Z,100843.00
2018-06-01T20:29:41.080Z,100834.00
2018-06-01T20:32:07.529Z,100833.31
2018-06-01T20:34:33.349Z,100825.69
2018-06-01T20:36:59.403Z,100823.77
2018-06-01T20:39:26.170Z,100830.31
2018-06-01T20:41:51.970Z,100821.48
2018-06-01T20:44:18.255Z,100826.55
2018-06-01T20:46:44.381Z,100816.84
2018-06-01T20:49:10.273Z,100808.64
2018-06-01T20:51:36.074Z,100812.58
2018-06-01T20:54:01.899Z,100813.81
2018-06-01T20:56:27.718Z,100806.89
2018-06-01T20:58:53.505Z,100803.35
2018-06-01T21:01:19.307Z,100801.53
2018-06-01T21:03:45.160Z,100805.00
2018-06-01T21:06:10.954Z,100802.50
2018-06-01T21:08:36.746Z,100795.73
2018-06-01T21:11:02.565Z,100800.42
2018-06-01T21:13:28.357Z,100801.39
2018-06-01T21:15:54.151Z,100798.71
2018-06-01T21:18:20.170Z,100800.58
2018-06-01T21:20:45.990Z,100798.30
2018-06-01T21:25:49.683Z,100802.87
2018-06-01T21:28:15.481Z,100802.92
2018-06-01T21:30:41.301Z,100801.55
2018-06-01T21:33:07.100Z,100801.61
2018-06-01T21:35:32.891Z,100810.80
2018-06-01T21:37:58.700Z,100809.52
2018-06-01T21:40:24.485Z,100808.34
2018-06-01T21:42:50.288Z,100815.22
2018-06-01T21:45:16.093Z,100817.77
2018-06-01T21:47:41.869Z,100816.08
2018-06-01T21:50:07.665Z,100817.66
2018-06-01T21:52:33.465Z,100815.88
2018-06-01T21:54:59.262Z,100816.05
2018-06-01T21:57:25.046Z,100817.96
2018-06-01T21:59:50.834Z,100815.41
2018-06-01T22:02:16.637Z,100814.84
2018-06-01T22:04:42.444Z,100813.37
2018-06-01T22:07:08.233Z,100811.56
2018-06-01T22:09:34.045Z,100810.27
2018-06-01T22:11:59.839Z,100811.20
2018-06-01T22:14:25.691Z,100811.69
2018-06-01T22:16:51.482Z,100812.05
2018-06-01T22:19:17.258Z,100810.09
2018-06-01T22:21:43.081Z,100811.67
2018-06-01T22:24:08.890Z,100807.80
2018-06-01T22:26:34.693Z,100816.02
2018-06-01T22:29:00.506Z,100810.89
2018-06-01T22:31:26.312Z,100809.86
2018-06-01T22:33:52.109Z,100809.01
2018-06-01T22:36:17.910Z,100803.89
2018-06-01T22:38:43.709Z,100805.95
2018-06-01T22:41:09.865Z,100803.83
2018-06-01T22:43:35.650Z,100801.27
2018-06-01T22:46:01.434Z,100796.02
2018-06-01T22:48:27.234Z,100795.84
2018-06-01T22:50:53.061Z,100792.86
2018-06-01T22:53:18.837Z,100793.27
2018-06-01T22:55:44.675Z,100799.48
2018-06-01T22:58:10.518Z,100795.02
2018-06-01T23:00:40.236Z,100799.28
2018-06-01T23:03:06.035Z,100800.08
2018-06-01T23:05:31.939Z,100795.86
2018-06-01T23:07:57.730Z,100797.27
2018-06-01T23:10:23.613Z,100796.41
2018-06-01T23:12:49.531Z,100790.31
2018-06-01T23:15:15.318Z,100791.46
2018-06-01T23:17:41.094Z,100801.38
2018-06-01T23:20:06.899Z,100808.04
2018-06-01T23:22:32.700Z,100805.63
2018-06-01T23:24:58.502Z,100799.55
2018-06-01T23:27:24.318Z,100800.17
2018-06-01T23:29:50.134Z,100802.13
2018-06-01T23:32:15.953Z,100805.15
2018-06-01T23:34:41.755Z,100796.70
2018-06-01T23:37:07.545Z,100790.94
2018-06-01T23:39:33.357Z,100792.36
2018-06-01T23:41:59.155Z,100789.57
2018-06-01T23:44:24.946Z,100794.70
2018-06-01T23:46:50.752Z,100788.60
2018-06-01T23:49:16.573Z,100794.25
2018-06-01T23:51:42.352Z,100788.33
2018-06-01T23:54:08.137Z,100788.38
2018-06-01T23:56:33.947Z,100774.48
2018-06-01T23:58:59.731Z,100771.35
